Time;durP1;ratioP1;P1;durP2;ratioP2;P2;SDS_P1;SDS_P2;PMS_P1;PMS_P2;Temp;Humidity;BMP_temperature;BMP_pressure;BME280_temperature;BME280_humidity;BME280_pressure;Samples;Min_cycle;Max_cycle;Signal;HPM_P1;HPM_P2
2021/04/02 00:00:40;;;;;;;32.13;20.58;;;15.30;75.10;;;;;;5103670;28;20186;-50
2021/04/02 00:03:12;;;;;;;25.98;18.88;;;15.30;75.30;;;;;;5130919;28;20269;-50
2021/04/02 00:05:37;;;;;;;30.30;20.52;;;15.10;75.20;;;;;;5098384;28;20328;-50
2021/04/02 00:08:04;;;;;;;33.53;20.63;;;14.70;75.00;;;;;;5107575;28;20654;-50
2021/04/02 00:10:36;;;;;;;33.05;20.45;;;15.10;75.40;;;;;;5112644;28;20456;-50
2021/04/02 00:13:01;;;;;;;31.75;20.38;;;15.10;75.60;;;;;;5110016;28;20636;-50
2021/04/02 00:15:27;;;;;;;30.03;22.63;;;15.00;75.70;;;;;;5109456;28;20195;-50
2021/04/02 00:17:53;;;;;;;30.67;20.67;;;15.30;76.10;;;;;;5125955;28;20958;-50
2021/04/02 00:20:19;;;;;;;29.17;21.33;;;15.10;76.20;;;;;;5108123;28;20210;-50
2021/04/02 00:22:46;;;;;;;34.63;23.13;;;15.20;76.70;;;;;;5110155;28;20187;-50
2021/04/02 00:25:14;;;;;;;27.50;19.85;;;15.20;77.00;;;;;;5104453;28;20605;-50
2021/04/02 00:27:40;;;;;;;31.25;21.50;;;15.00;77.30;;;;;;5101450;27;20628;-50
2021/04/02 00:30:16;;;;;;;28.10;21.05;;;15.10;77.60;;;;;;5115751;27;20205;-50
2021/04/02 00:32:42;;;;;;;31.38;22.20;;;14.70;77.70;;;;;;5117556;27;20182;-49
2021/04/02 00:35:10;;;;;;;28.63;21.40;;;14.90;78.00;;;;;;5133495;27;20636;-50
2021/04/02 00:37:36;;;;;;;31.10;22.15;;;14.90;78.20;;;;;;5111027;27;20617;-49
2021/04/02 00:40:05;;;;;;;32.87;24.43;;;14.70;78.60;;;;;;5113281;27;20234;-49
2021/04/02 00:42:30;;;;;;;31.05;22.17;;;14.60;78.90;;;;;;5106268;28;20183;-50
2021/04/02 00:44:56;;;;;;;34.20;22.70;;;14.60;79.00;;;;;;5106258;27;20310;-49
2021/04/02 00:47:22;;;;;;;33.57;23.70;;;14.60;79.50;;;;;;5109161;27;20188;-49
2021/04/02 00:49:47;;;;;;;28.80;22.97;;;14.60;79.70;;;;;;5122070;27;20232;-50
2021/04/02 00:52:13;;;;;;;33.97;24.33;;;14.60;80.20;;;;;;5115486;27;20179;-50
2021/04/02 00:54:38;;;;;;;32.97;24.67;;;14.60;80.70;;;;;;5104780;28;20267;-50
2021/04/02 00:57:04;;;;;;;31.63;22.53;;;14.30;80.60;;;;;;5112056;27;20270;-50
2021/04/02 00:59:30;;;;;;;35.93;23.93;;;14.50;81.10;;;;;;5116042;27;20195;-50
2021/04/02 01:01:56;;;;;;;36.77;24.43;;;14.50;81.60;;;;;;5102149;27;20436;-49
2021/04/02 01:04:21;;;;;;;34.10;24.30;;;14.40;81.80;;;;;;5116056;27;20687;-50
2021/04/02 01:06:47;;;;;;;33.73;24.53;;;14.30;82.60;;;;;;5107181;28;20648;-50
2021/04/02 01:09:13;;;;;;;30.47;22.80;;;14.20;82.80;;;;;;5104415;28;20268;-49
2021/04/02 01:11:39;;;;;;;27.43;21.97;;;14.20;83.30;;;;;;5104257;27;20278;-50
2021/04/02 01:14:04;;;;;;;33.33;22.07;;;14.10;83.40;;;;;;5116084;27;20622;-50
2021/04/02 01:16:33;;;;;;;31.27;22.37;;;14.10;84.00;;;;;;5100436;28;20445;-50
2021/04/02 01:19:13;;;;;;;30.98;21.58;;;14.10;84.00;;;;;;5106213;27;20717;-50
2021/04/02 01:22:18;;;;;;;28.40;21.45;;;14.20;84.20;;;;;;5092912;28;20270;-49
2021/04/02 01:24:59;;;;;;;25.63;19.63;;;14.20;84.10;;;;;;5105633;27;20220;-50
2021/04/02 01:27:27;;;;;;;23.70;19.23;;;14.00;83.70;;;;;;5099327;28;20651;-50
2021/04/02 01:30:02;;;;;;;26.65;18.35;;;14.00;84.10;;;;;;5106411;27;20244;-50
2021/04/02 01:32:41;;;;;;;28.70;19.05;;;13.80;83.90;;;;;;5109084;28;20171;-50
2021/04/02 01:35:16;;;;;;;25.17;17.95;;;13.90;84.30;;;;;;5097866;27;20657;-50
2021/04/02 01:38:15;;;;;;;25.10;17.25;;;13.90;84.30;;;;;;5101146;27;20220;-50
2021/04/02 01:40:44;;;;;;;25.45;16.45;;;13.90;84.60;;;;;;5103226;27;20714;-50
2021/04/02 01:43:13;;;;;;;25.27;16.98;;;13.80;84.80;;;;;;5108603;27;20600;-50
2021/04/02 01:45:40;;;;;;;22.45;16.98;;;13.70;85.60;;;;;;5112964;27;20231;-50
2021/04/02 01:48:07;;;;;;;20.08;16.83;;;13.60;85.30;;;;;;5110076;27;20198;-50
2021/04/02 01:50:36;;;;;;;24.90;17.33;;;13.50;85.50;;;;;;5103002;28;20687;-50
2021/04/02 01:53:04;;;;;;;23.10;16.83;;;13.60;86.10;;;;;;5109843;27;20182;-50
2021/04/02 01:55:30;;;;;;;21.45;16.35;;;13.40;86.70;;;;;;5104579;27;20198;-50
2021/04/02 01:57:57;;;;;;;24.25;16.13;;;13.30;86.90;;;;;;5100858;28;20176;-49
2021/04/02 02:00:30;;;;;;;23.67;16.13;;;13.40;87.30;;;;;;5101242;28;20263;-50
2021/04/02 02:02:58;;;;;;;23.25;16.50;;;13.10;87.60;;;;;;5111324;27;20234;-50
2021/04/02 02:05:28;;;;;;;22.25;16.80;;;12.90;87.70;;;;;;5110193;27;20550;-50
2021/04/02 02:07:58;;;;;;;20.50;15.90;;;13.20;88.00;;;;;;5111632;27;20182;-50
2021/04/02 02:10:24;;;;;;;21.80;16.58;;;13.20;88.50;;;;;;5102265;27;20301;-50
2021/04/02 02:12:50;;;;;;;20.73;15.07;;;12.50;88.20;;;;;;5116433;27;20594;-51
2021/04/02 02:15:17;;;;;;;21.63;15.25;;;13.00;89.50;;;;;;5108044;27;20672;-50
2021/04/02 02:17:47;;;;;;;20.08;14.13;;;13.10;89.10;;;;;;5100740;28;20632;-50
2021/04/02 02:20:14;;;;;;;20.67;14.20;;;12.60;89.10;;;;;;5103830;27;20210;-50
2021/04/02 02:22:41;;;;;;;18.10;13.55;;;12.70;90.00;;;;;;5097258;27;20328;-51
2021/04/02 02:25:10;;;;;;;17.17;13.90;;;12.70;90.00;;;;;;5100595;28;20648;-50
2021/04/02 02:27:37;;;;;;;15.32;11.52;;;12.90;90.10;;;;;;5109857;27;20194;-50
2021/04/02 02:30:12;;;;;;;14.88;10.30;;;12.50;89.80;;;;;;5111475;27;20205;-50
2021/04/02 02:32:38;;;;;;;12.23;10.13;;;12.70;89.80;;;;;;5092973;28;20255;-50
2021/04/02 02:35:06;;;;;;;14.83;10.47;;;12.70;89.20;;;;;;5097196;28;20248;-50
2021/04/02 02:37:38;;;;;;;16.25;11.55;;;12.80;89.00;;;;;;5105539;27;20175;-50
2021/04/02 02:40:28;;;;;;;15.80;11.68;;;13.00;89.20;;;;;;5110974;27;20620;-50
2021/04/02 02:42:56;;;;;;;17.15;12.77;;;12.90;89.10;;;;;;5085090;28;20191;-50
2021/04/02 02:45:23;;;;;;;14.48;12.00;;;12.70;89.30;;;;;;5092940;28;20286;-50
2021/04/02 02:47:48;;;;;;;16.90;13.00;;;12.90;90.00;;;;;;5111290;27;20807;-50
2021/04/02 02:50:23;;;;;;;16.50;12.80;;;12.50;90.00;;;;;;5099967;28;20289;-50
2021/04/02 02:52:50;;;;;;;16.67;12.77;;;12.90;90.50;;;;;;5105668;28;20186;-50
2021/04/02 02:55:19;;;;;;;19.17;11.95;;;12.30;90.20;;;;;;5108915;28;20175;-50
2021/04/02 02:57:45;;;;;;;14.38;11.65;;;12.80;90.20;;;;;;5107967;28;20252;-50
2021/04/02 03:00:15;;;;;;;14.43;10.27;;;12.50;90.00;;;;;;5097892;27;20205;-50
2021/04/02 03:02:47;;;;;;;15.27;10.75;;;12.30;90.20;;;;;;5103213;27;20180;-50
2021/04/02 03:05:19;;;;;;;10.65;9.27;;;12.60;90.40;;;;;;5106054;27;20593;-50
2021/04/02 03:07:49;;;;;;;15.10;10.65;;;12.40;90.40;;;;;;5100502;27;20186;-50
2021/04/02 03:10:16;;;;;;;15.77;10.80;;;12.20;90.40;;;;;;5102003;27;20218;-50
2021/04/02 03:12:44;;;;;;;14.13;10.43;;;12.30;90.70;;;;;;5111068;27;20178;-51
2021/04/02 03:15:13;;;;;;;13.20;9.52;;;11.90;90.50;;;;;;5108022;27;20667;-50
2021/04/02 03:17:41;;;;;;;14.35;10.98;;;12.20;90.90;;;;;;5109390;27;20198;-51
2021/04/02 03:20:08;;;;;;;14.85;11.07;;;12.20;91.10;;;;;;5104500;28;20214;-50
2021/04/02 03:22:34;;;;;;;13.68;11.60;;;12.00;91.40;;;;;;5106174;27;20263;-50
2021/04/02 03:25:09;;;;;;;18.05;13.48;;;12.00;92.10;;;;;;5108397;28;20218;-50
2021/04/02 03:27:39;;;;;;;13.70;11.63;;;11.80;92.30;;;;;;5108512;28;20531;-50
2021/04/02 03:30:10;;;;;;;16.10;11.38;;;11.80;92.20;;;;;;5101256;28;20211;-50
2021/04/02 03:32:39;;;;;;;17.85;10.05;;;11.70;92.20;;;;;;5104968;27;20184;-50
2021/04/02 03:35:06;;;;;;;12.75;10.40;;;11.90;91.90;;;;;;5110906;27;20523;-50
2021/04/02 03:37:34;;;;;;;14.10;10.48;;;11.80;91.60;;;;;;5109381;28;20235;-50
2021/04/02 03:40:04;;;;;;;11.02;9.02;;;11.90;91.50;;;;;;5100776;28;20253;-50
2021/04/02 03:42:31;;;;;;;14.23;8.02;;;11.50;90.80;;;;;;5109683;27;20189;-51
2021/04/02 03:45:01;;;;;;;12.77;9.27;;;11.80;90.80;;;;;;5102203;28;20186;-50
2021/04/02 03:47:27;;;;;;;11.48;8.13;;;11.50;90.70;;;;;;5110398;28;20682;-50
2021/04/02 03:49:55;;;;;;;9.10;8.05;;;11.60;90.70;;;;;;5101810;28;20312;-50
2021/04/02 03:52:30;;;;;;;14.10;10.07;;;11.20;90.60;;;;;;5100284;28;20182;-51
2021/04/02 03:54:57;;;;;;;16.88;10.07;;;11.30;91.10;;;;;;5105502;28;20544;-50
2021/04/02 03:57:25;;;;;;;11.40;9.10;;;11.10;91.20;;;;;;5106086;28;20230;-50
2021/04/02 03:59:53;;;;;;;10.93;8.55;;;11.40;91.60;;;;;;5095092;28;20216;-50
2021/04/02 04:02:19;;;;;;;11.60;8.35;;;11.40;91.00;;;;;;5098796;27;20183;-50
2021/04/02 04:04:47;;;;;;;9.70;7.13;;;11.30;90.60;;;;;;5106642;27;20193;-50
2021/04/02 04:07:14;;;;;;;7.63;6.53;;;11.20;88.50;;;;;;5102795;28;20868;-51
2021/04/02 04:09:41;;;;;;;10.50;6.90;;;11.20;87.70;;;;;;5109959;27;20205;-51
2021/04/02 04:12:10;;;;;;;9.48;7.15;;;11.20;87.70;;;;;;5108159;27;20193;-50
2021/04/02 04:14:38;;;;;;;9.88;7.50;;;11.10;87.40;;;;;;5114524;27;20174;-51
2021/04/02 04:17:05;;;;;;;8.50;6.78;;;11.30;87.50;;;;;;5109110;27;20195;-50
2021/04/02 04:19:33;;;;;;;7.63;6.53;;;10.70;86.30;;;;;;5100036;27;20204;-50
2021/04/02 04:22:01;;;;;;;7.35;5.43;;;10.90;86.10;;;;;;5102032;27;20208;-50
2021/04/02 04:24:28;;;;;;;5.85;4.80;;;10.60;85.90;;;;;;5102775;27;20449;-50
2021/04/02 04:26:56;;;;;;;5.45;4.68;;;10.90;85.00;;;;;;5115012;27;20220;-50
2021/04/02 04:29:28;;;;;;;8.27;5.10;;;10.70;84.80;;;;;;5106490;27;20221;-50
2021/04/02 04:31:57;;;;;;;6.70;5.03;;;10.60;84.10;;;;;;5110880;28;20205;-50
2021/04/02 04:34:24;;;;;;;6.30;4.45;;;10.60;83.30;;;;;;5114382;27;20181;-50
2021/04/02 04:36:52;;;;;;;5.05;4.18;;;10.70;82.70;;;;;;5109028;27;20179;-50
2021/04/02 04:39:19;;;;;;;6.50;4.03;;;10.70;82.70;;;;;;5103505;28;20214;-49
2021/04/02 04:41:46;;;;;;;4.45;3.78;;;10.70;82.70;;;;;;5103514;27;20185;-51
2021/04/02 04:44:13;;;;;;;7.38;3.67;;;10.50;80.80;;;;;;5112174;27;20586;-50
2021/04/02 04:46:38;;;;;;;4.57;4.05;;;10.50;80.60;;;;;;5117846;27;20645;-50
2021/04/02 04:49:05;;;;;;;4.50;3.40;;;10.40;80.40;;;;;;5102942;27;20223;-50
2021/04/02 04:51:33;;;;;;;5.25;3.45;;;10.40;80.20;;;;;;5102964;27;20216;-50
2021/04/02 04:54:00;;;;;;;6.18;2.90;;;10.20;80.30;;;;;;5097062;27;20566;-50
2021/04/02 04:56:29;;;;;;;3.08;2.78;;;10.10;79.50;;;;;;5101521;27;20713;-50
2021/04/02 04:59:00;;;;;;;3.55;3.15;;;9.90;80.50;;;;;;5112714;27;20212;-50
2021/04/02 05:01:29;;;;;;;5.38;3.42;;;9.60;80.90;;;;;;5107605;27;20177;-50
2021/04/02 05:03:56;;;;;;;4.20;2.63;;;9.80;81.50;;;;;;5102985;27;20181;-52
2021/04/02 05:06:23;;;;;;;3.17;2.55;;;9.80;80.80;;;;;;5109492;27;20184;-53
2021/04/02 05:08:51;;;;;;;4.47;2.92;;;9.80;81.20;;;;;;5116581;27;20265;-53
2021/04/02 05:11:19;;;;;;;4.32;2.35;;;9.60;80.80;;;;;;5107045;27;20593;-53
2021/04/02 05:13:46;;;;;;;2.72;2.40;;;9.70;82.00;;;;;;5101596;27;20211;-53
2021/04/02 05:16:13;;;;;;;2.83;2.33;;;9.80;81.10;;;;;;5102025;27;20458;-52
2021/04/02 05:18:40;;;;;;;3.00;2.70;;;9.70;80.90;;;;;;5109294;27;20203;-53
2021/04/02 05:21:06;;;;;;;4.22;2.30;;;9.40;81.70;;;;;;5108096;27;20591;-56
2021/04/02 05:23:33;;;;;;;3.15;2.40;;;9.60;80.60;;;;;;5104672;27;20234;-56
2021/04/02 05:25:58;;;;;;;4.23;2.70;;;9.50;79.90;;;;;;5105459;27;20623;-53
2021/04/02 05:28:24;;;;;;;4.30;2.67;;;9.20;79.50;;;;;;5101682;27;20196;-54
2021/04/02 05:30:50;;;;;;;4.60;2.67;;;9.40;79.90;;;;;;5102643;27;20495;-53
2021/04/02 05:33:16;;;;;;;2.90;2.28;;;9.60;80.70;;;;;;5101900;27;20175;-52
2021/04/02 05:35:42;;;;;;;3.60;2.33;;;9.40;80.30;;;;;;5125534;27;20266;-52
2021/04/02 05:38:08;;;;;;;4.65;2.60;;;9.30;80.70;;;;;;5105040;27;20441;-55
2021/04/02 05:40:34;;;;;;;3.23;2.60;;;9.40;80.30;;;;;;5102493;27;20195;-51
2021/04/02 05:43:16;;;;;;;3.92;2.78;;;9.40;80.30;;;;;;5103684;27;20187;-51
2021/04/02 05:45:42;;;;;;;2.42;2.22;;;9.30;80.20;;;;;;5103828;27;20183;-53
2021/04/02 05:48:09;;;;;;;3.20;2.90;;;9.20;81.00;;;;;;5103731;27;20304;-52
2021/04/02 05:50:37;;;;;;;4.10;2.75;;;9.20;81.70;;;;;;5104477;27;20203;-52
2021/04/02 05:53:09;;;;;;;4.28;2.90;;;9.40;81.20;;;;;;5101686;27;20187;-53
2021/04/02 05:55:40;;;;;;;4.90;4.03;;;9.50;81.30;;;;;;5106815;27;20225;-54
2021/04/02 05:58:08;;;;;;;3.75;2.92;;;9.70;81.10;;;;;;5102771;27;20173;-54
2021/04/02 06:00:36;;;;;;;3.20;2.90;;;9.90;81.60;;;;;;5109335;28;20233;-53
2021/04/02 06:03:03;;;;;;;4.45;2.85;;;9.80;81.30;;;;;;5109745;27;20572;-55
2021/04/02 06:05:29;;;;;;;4.70;3.08;;;10.00;79.60;;;;;;5100957;27;20264;-54
2021/04/02 06:07:56;;;;;;;4.17;3.07;;;10.10;79.30;;;;;;5105714;27;20224;-54
2021/04/02 06:10:23;;;;;;;4.35;3.00;;;10.00;80.00;;;;;;5107153;27;20209;-52
2021/04/02 06:12:49;;;;;;;5.03;3.20;;;10.20;79.40;;;;;;5105373;27;20194;-53
2021/04/02 06:15:18;;;;;;;4.50;3.13;;;10.30;79.10;;;;;;5103671;27;20197;-53
2021/04/02 06:18:03;;;;;;;4.07;2.92;;;10.40;79.20;;;;;;5106305;27;20196;-54
2021/04/02 06:20:40;;;;;;;5.30;3.40;;;9.80;79.70;;;;;;5106571;27;20213;-54
2021/04/02 06:23:15;;;;;;;3.70;3.30;;;10.60;78.40;;;;;;5101402;28;20197;-55
2021/04/02 06:25:55;;;;;;;3.70;3.22;;;10.70;78.00;;;;;;5105730;27;20183;-54
2021/04/02 06:28:29;;;;;;;5.30;3.90;;;10.50;77.10;;;;;;5104347;27;20546;-53
2021/04/02 06:31:01;;;;;;;4.22;3.83;;;10.80;77.90;;;;;;5102711;27;20203;-52
2021/04/02 06:33:35;;;;;;;4.40;3.63;;;10.70;78.70;;;;;;5101374;27;20274;-56
2021/04/02 06:36:02;;;;;;;4.95;4.45;;;10.50;77.90;;;;;;5105106;27;20207;-55
2021/04/02 06:38:30;;;;;;;6.55;4.10;;;10.70;77.50;;;;;;5101052;27;20202;-52
2021/04/02 06:41:02;;;;;;;4.45;3.40;;;10.80;77.50;;;;;;5104044;27;20190;-54
2021/04/02 06:43:34;;;;;;;7.70;4.00;;;11.00;77.70;;;;;;5103310;27;20181;-54
2021/04/02 06:46:05;;;;;;;4.45;3.80;;;11.00;77.00;;;;;;5104776;27;20190;-55
2021/04/02 06:48:31;;;;;;;4.53;4.10;;;11.50;76.90;;;;;;5102712;27;20212;-55
2021/04/02 06:50:57;;;;;;;5.88;4.50;;;12.00;75.70;;;;;;5125590;27;20221;-55
2021/04/02 06:53:24;;;;;;;5.47;4.30;;;12.60;72.60;;;;;;5109597;27;20587;-54
2021/04/02 06:55:52;;;;;;;4.57;3.65;;;13.00;70.20;;;;;;5110536;27;20496;-55
2021/04/02 06:58:22;;;;;;;4.20;3.80;;;13.80;68.50;;;;;;5104852;27;20255;-55
2021/04/02 07:00:50;;;;;;;4.05;3.70;;;14.80;66.00;;;;;;5095762;27;20660;-55
2021/04/02 07:03:18;;;;;;;5.22;3.72;;;15.60;62.20;;;;;;5109014;27;20673;-54
2021/04/02 07:05:45;;;;;;;4.97;4.47;;;16.30;59.40;;;;;;5107857;27;20239;-54
2021/04/02 07:08:16;;;;;;;5.07;4.57;;;16.10;58.70;;;;;;5108160;27;20187;-55
2021/04/02 07:10:43;;;;;;;4.35;3.95;;;17.30;57.00;;;;;;5101836;27;20226;-55
2021/04/02 07:13:09;;;;;;;5.45;4.43;;;18.20;55.80;;;;;;5109493;27;20174;-55
2021/04/02 07:15:37;;;;;;;5.72;4.40;;;19.00;52.80;;;;;;5105946;27;20187;-55
2021/04/02 07:18:05;;;;;;;5.57;4.82;;;18.80;50.90;;;;;;5106736;27;20344;-55
2021/04/02 07:20:31;;;;;;;4.88;4.20;;;17.90;52.30;;;;;;5107494;27;20200;-55
2021/04/02 07:22:58;;;;;;;4.57;4.18;;;16.40;53.80;;;;;;5123535;27;20183;-55
2021/04/02 07:25:27;;;;;;;5.60;5.10;;;17.30;54.80;;;;;;5100677;27;20220;-55
2021/04/02 07:27:54;;;;;;;5.53;4.88;;;16.60;54.10;;;;;;5099750;28;20278;-55
2021/04/02 07:30:25;;;;;;;4.82;4.30;;;16.90;54.90;;;;;;5104086;27;20288;-55
2021/04/02 07:32:51;;;;;;;5.63;4.47;;;18.30;53.00;;;;;;5109006;27;20211;-55
2021/04/02 07:35:22;;;;;;;4.85;4.35;;;19.20;51.60;;;;;;5093003;28;20206;-55
2021/04/02 07:37:57;;;;;;;5.60;5.00;;;20.20;50.00;;;;;;5105946;27;20243;-55
2021/04/02 07:40:27;;;;;;;7.10;6.40;;;20.20;48.60;;;;;;5098391;27;20945;-54
2021/04/02 07:42:55;;;;;;;6.37;5.43;;;21.00;47.20;;;;;;5118795;27;20528;-55
2021/04/02 07:45:33;;;;;;;6.17;5.57;;;21.80;46.80;;;;;;5095171;28;20977;-55
2021/04/02 07:48:38;;;;;;;6.43;5.90;;;22.40;44.40;;;;;;5109366;27;20439;-55
2021/04/02 07:51:04;;;;;;;7.50;6.43;;;22.40;44.50;;;;;;4999511;28;20583;-54
2021/04/02 07:53:32;;;;;;;8.27;6.87;;;20.20;45.00;;;;;;5004620;28;20539;-55
2021/04/02 07:56:06;;;;;;;6.50;5.97;;;21.30;46.70;;;;;;5057349;28;20440;-55
2021/04/02 07:58:33;;;;;;;5.73;5.17;;;22.60;45.10;;;;;;5102666;28;20458;-55
2021/04/02 08:01:00;;;;;;;6.77;6.10;;;23.30;44.40;;;;;;5094951;28;20964;-55
2021/04/02 08:03:33;;;;;;;7.20;6.53;;;24.10;41.60;;;;;;5104215;28;20443;-55
2021/04/02 08:06:05;;;;;;;5.70;5.20;;;23.20;41.20;;;;;;5108434;28;20523;-54
2021/04/02 08:08:46;;;;;;;6.00;5.40;;;23.20;43.60;;;;;;5108136;28;20461;-54
2021/04/02 08:11:25;;;;;;;7.00;5.37;;;24.70;41.30;;;;;;5098873;28;20441;-55
2021/04/02 08:14:05;;;;;;;7.70;5.97;;;24.10;40.20;;;;;;5127314;27;20472;-56
2021/04/02 08:16:40;;;;;;;7.53;6.83;;;23.70;41.20;;;;;;5103430;28;21015;-56
2021/04/02 08:19:19;;;;;;;7.53;6.83;;;23.00;41.10;;;;;;5107335;28;20455;-55
2021/04/02 08:21:47;;;;;;;7.20;6.50;;;23.10;42.60;;;;;;5108320;28;20817;-61
2021/04/02 08:24:14;;;;;;;7.23;6.60;;;24.50;40.60;;;;;;5107033;28;20944;-54
2021/04/02 08:26:42;;;;;;;7.43;6.70;;;24.20;40.20;;;;;;5108674;28;20463;-54
2021/04/02 08:29:09;;;;;;;7.13;6.10;;;22.80;41.70;;;;;;5107936;28;20470;-55
2021/04/02 08:31:38;;;;;;;8.23;6.90;;;22.80;43.00;;;;;;5098153;28;20816;-55
2021/04/02 08:34:04;;;;;;;7.70;7.00;;;23.30;41.70;;;;;;5108429;28;20440;-54
2021/04/02 08:36:30;;;;;;;7.93;7.13;;;22.60;40.60;;;;;;5100681;28;20448;-54
2021/04/02 08:38:56;;;;;;;7.73;6.53;;;23.40;42.10;;;;;;5103979;28;20675;-55
2021/04/02 08:41:30;;;;;;;7.47;6.30;;;23.90;41.00;;;;;;5097642;28;20702;-54
2021/04/02 08:43:57;;;;;;;7.17;6.50;;;25.10;40.00;;;;;;5101033;28;20467;-54
2021/04/02 08:46:38;;;;;;;7.47;6.77;;;24.00;39.70;;;;;;5103117;27;20937;-54
2021/04/02 08:49:05;;;;;;;7.47;6.70;;;24.30;39.70;;;;;;5102057;27;20460;-54
2021/04/02 08:51:31;;;;;;;7.50;6.90;;;24.50;40.80;;;;;;5122965;27;20530;-55
2021/04/02 08:53:56;;;;;;;7.70;6.90;;;25.00;39.60;;;;;;5109017;27;21040;-54
2021/04/02 08:56:24;;;;;;;7.70;7.00;;;24.60;40.00;;;;;;5125002;27;20307;-53
2021/04/02 08:58:50;;;;;;;7.90;7.20;;;23.20;41.00;;;;;;5099256;27;20221;-54
2021/04/02 09:01:17;;;;;;;8.50;7.80;;;23.50;41.30;;;;;;5104355;27;20814;-54
2021/04/02 09:03:44;;;;;;;8.10;7.30;;;22.60;42.20;;;;;;5104247;27;20446;-54
2021/04/02 09:06:11;;;;;;;8.27;7.47;;;22.90;42.00;;;;;;5105118;27;20948;-53
2021/04/02 09:08:38;;;;;;;8.43;7.73;;;20.90;43.70;;;;;;5125332;27;21297;-53
2021/04/02 09:11:13;;;;;;;9.30;8.40;;;21.10;45.10;;;;;;5103508;27;20574;-54
2021/04/02 09:13:44;;;;;;;8.15;7.35;;;20.20;45.20;;;;;;5105942;27;20484;-55
2021/04/02 09:16:14;;;;;;;8.30;7.50;;;20.20;46.80;;;;;;5104420;27;20316;-55
2021/04/02 09:18:48;;;;;;;10.68;7.95;;;19.60;46.30;;;;;;5101573;27;20290;-54
2021/04/02 09:21:15;;;;;;;8.80;7.57;;;19.40;48.30;;;;;;5105369;27;20200;-54
2021/04/02 09:23:41;;;;;;;9.05;8.20;;;19.10;48.50;;;;;;5099769;27;20187;-53
2021/04/02 09:26:09;;;;;;;11.83;9.60;;;18.90;48.70;;;;;;5104067;27;20541;-54
2021/04/02 09:28:37;;;;;;;9.43;7.55;;;19.20;49.00;;;;;;5104922;27;20543;-55
2021/04/02 09:31:23;;;;;;;9.10;8.10;;;18.80;49.00;;;;;;5103000;27;20237;-55
2021/04/02 09:34:04;;;;;;;9.15;8.25;;;19.20;49.30;;;;;;5105174;27;21671;-55
2021/04/02 09:36:32;;;;;;;8.93;8.05;;;17.80;50.90;;;;;;5105350;27;20195;-55
2021/04/02 09:39:21;;;;;;;8.18;7.38;;;17.90;51.90;;;;;;5107077;27;20211;-55
2021/04/02 09:41:56;;;;;;;8.88;8.05;;;18.30;51.00;;;;;;5103474;27;20181;-54
2021/04/02 09:44:24;;;;;;;8.68;7.85;;;19.20;49.40;;;;;;5104358;27;20658;-55
2021/04/02 09:46:52;;;;;;;10.20;8.00;;;19.30;49.20;;;;;;5104218;27;20762;-55
2021/04/02 09:49:24;;;;;;;7.93;7.22;;;19.90;48.20;;;;;;5105320;27;20225;-55
2021/04/02 09:51:52;;;;;;;8.65;7.80;;;19.90;48.10;;;;;;5104051;27;20210;-55
2021/04/02 09:54:19;;;;;;;8.47;7.73;;;20.10;47.80;;;;;;5103937;27;20232;-54
2021/04/02 09:56:46;;;;;;;8.45;7.75;;;20.40;47.10;;;;;;5105150;27;20442;-60
2021/04/02 09:59:13;;;;;;;9.70;8.05;;;19.90;46.30;;;;;;5101450;27;20199;-55
2021/04/02 10:01:40;;;;;;;9.20;8.13;;;18.80;47.80;;;;;;5106525;27;20851;-55
2021/04/02 10:04:07;;;;;;;9.10;8.20;;;18.10;49.20;;;;;;5101128;27;20275;-55
2021/04/02 10:06:34;;;;;;;8.18;7.38;;;17.20;51.30;;;;;;5106962;27;20726;-55
2021/04/02 10:09:00;;;;;;;9.48;8.30;;;17.30;51.30;;;;;;5103636;27;20225;-54
2021/04/02 10:11:26;;;;;;;9.40;8.40;;;16.80;52.20;;;;;;5101162;27;20551;-54
2021/04/02 10:13:53;;;;;;;12.45;9.23;;;16.00;54.00;;;;;;5101744;27;20432;-54
2021/04/02 10:16:19;;;;;;;8.65;7.70;;;15.80;54.70;;;;;;5099648;27;20188;-55
2021/04/02 10:18:49;;;;;;;8.48;7.63;;;16.30;54.90;;;;;;5105958;27;21600;-55
2021/04/02 10:21:19;;;;;;;8.90;7.60;;;17.10;52.80;;;;;;5106606;27;20177;-55
2021/04/02 10:23:45;;;;;;;9.50;8.60;;;17.10;51.20;;;;;;5104557;27;20174;-54
2021/04/02 10:26:11;;;;;;;12.87;10.87;;;17.10;51.80;;;;;;5107389;27;21526;-54
2021/04/02 10:28:37;;;;;;;8.07;7.28;;;17.70;51.10;;;;;;5102672;27;20841;-54
2021/04/02 10:31:04;;;;;;;8.20;7.43;;;17.90;50.60;;;;;;5103901;27;20215;-54
2021/04/02 10:33:30;;;;;;;8.48;7.68;;;17.80;50.20;;;;;;5119961;27;20713;-55
2021/04/02 10:35:56;;;;;;;8.27;7.47;;;18.30;50.00;;;;;;5101263;27;20202;-54
2021/04/02 10:38:22;;;;;;;8.70;7.90;;;17.80;50.00;;;;;;5101601;27;20463;-55
2021/04/02 10:40:48;;;;;;;9.90;7.75;;;17.90;50.90;;;;;;5103154;27;20183;-56
2021/04/02 10:43:15;;;;;;;9.20;8.40;;;17.60;50.90;;;;;;5119226;27;20292;-55
2021/04/02 10:45:41;;;;;;;8.40;7.63;;;17.80;50.60;;;;;;5099893;27;20237;-55
2021/04/02 10:48:07;;;;;;;10.85;8.52;;;17.20;51.80;;;;;;5101224;27;20186;-55
2021/04/02 10:50:34;;;;;;;8.65;7.65;;;17.90;51.50;;;;;;5101954;27;20199;-55
2021/04/02 10:53:00;;;;;;;8.45;7.30;;;18.50;49.30;;;;;;5122201;27;20270;-55
2021/04/02 10:55:26;;;;;;;7.53;6.80;;;18.90;48.30;;;;;;5106237;27;20273;-54
2021/04/02 10:57:54;;;;;;;8.43;7.53;;;18.50;46.60;;;;;;5123840;27;20432;-55
2021/04/02 11:00:22;;;;;;;8.80;7.88;;;17.80;46.80;;;;;;5104878;27;20687;-55
2021/04/02 11:02:48;;;;;;;10.02;8.32;;;18.10;47.30;;;;;;5104317;27;20232;-55
2021/04/02 11:05:15;;;;;;;10.30;8.77;;;18.10;48.70;;;;;;5104492;27;20190;-55
2021/04/02 11:07:41;;;;;;;8.35;7.55;;;17.20;51.40;;;;;;5097755;27;20440;-54
2021/04/02 11:10:08;;;;;;;8.90;8.00;;;17.70;50.10;;;;;;5099396;27;20222;-56
2021/04/02 11:12:34;;;;;;;8.70;7.70;;;17.80;48.30;;;;;;5101742;27;21218;-55
2021/04/02 11:15:00;;;;;;;9.05;8.18;;;17.90;48.40;;;;;;5102090;27;20209;-54
2021/04/02 11:17:26;;;;;;;8.77;7.87;;;18.00;47.70;;;;;;5099284;27;20211;-55
2021/04/02 11:19:53;;;;;;;9.07;7.73;;;18.30;47.00;;;;;;5104883;27;20456;-54
2021/04/02 11:22:20;;;;;;;8.02;7.32;;;17.80;47.80;;;;;;5103418;27;20194;-56
2021/04/02 11:24:45;;;;;;;7.32;6.70;;;18.50;47.90;;;;;;5121516;27;20294;-55
2021/04/02 11:27:11;;;;;;;7.13;6.53;;;18.20;47.60;;;;;;5100751;27;20793;-54
2021/04/02 11:29:38;;;;;;;8.30;6.73;;;18.20;46.90;;;;;;5101256;27;20456;-54
2021/04/02 11:32:06;;;;;;;6.95;6.35;;;18.60;46.70;;;;;;5102827;27;20182;-54
2021/04/02 11:34:31;;;;;;;7.85;6.50;;;18.30;46.70;;;;;;5099563;27;20175;-54
2021/04/02 11:36:58;;;;;;;7.93;7.23;;;18.10;46.30;;;;;;5103953;27;20322;-54
2021/04/02 11:39:24;;;;;;;7.80;7.00;;;17.60;47.20;;;;;;5098012;27;20293;-55
2021/04/02 11:41:50;;;;;;;7.00;6.35;;;17.90;48.20;;;;;;5101189;27;20193;-54
2021/04/02 11:44:15;;;;;;;8.17;7.07;;;18.00;48.10;;;;;;5103547;28;20410;-56
2021/04/02 11:46:41;;;;;;;9.70;7.53;;;17.50;48.30;;;;;;5102625;28;20183;-55
2021/04/02 11:49:07;;;;;;;9.33;6.80;;;17.70;48.80;;;;;;5098067;28;20290;-55
2021/04/02 11:51:33;;;;;;;7.05;6.35;;;17.00;49.00;;;;;;5097795;28;20647;-56
2021/04/02 11:53:59;;;;;;;7.00;6.40;;;16.50;48.40;;;;;;5108228;28;20179;-55
2021/04/02 11:56:25;;;;;;;6.47;5.87;;;16.80;48.80;;;;;;5104183;28;20178;-56
2021/04/02 11:58:51;;;;;;;7.90;7.10;;;17.40;48.70;;;;;;5100959;28;20203;-56
2021/04/02 12:01:16;;;;;;;7.07;6.43;;;18.00;48.80;;;;;;5097605;28;20186;-55
2021/04/02 12:03:42;;;;;;;6.67;6.07;;;18.00;48.30;;;;;;5101554;28;20444;-54
2021/04/02 12:06:07;;;;;;;6.73;6.00;;;17.50;48.30;;;;;;5099415;28;20183;-55
2021/04/02 12:08:33;;;;;;;7.40;6.70;;;17.50;48.90;;;;;;5104646;28;20669;-55
2021/04/02 12:10:59;;;;;;;6.87;6.27;;;17.40;48.40;;;;;;5102461;28;20213;-55
2021/04/02 12:13:24;;;;;;;6.70;6.10;;;17.40;48.10;;;;;;5103273;28;20623;-55
2021/04/02 12:15:50;;;;;;;5.90;5.40;;;17.30;48.50;;;;;;5105051;27;20190;-55
2021/04/02 12:18:16;;;;;;;6.43;5.83;;;17.30;48.40;;;;;;5098899;28;20207;-54
2021/04/02 12:20:41;;;;;;;6.13;5.60;;;17.00;48.20;;;;;;5106052;28;20178;-54
2021/04/02 12:23:07;;;;;;;5.80;5.27;;;17.00;48.30;;;;;;5108543;27;20642;-53
2021/04/02 12:25:33;;;;;;;6.23;5.73;;;17.10;47.90;;;;;;5109014;27;20191;-53
2021/04/02 12:27:58;;;;;;;6.00;5.50;;;17.20;47.00;;;;;;5100837;27;20190;-53
2021/04/02 12:30:24;;;;;;;8.00;5.83;;;17.20;48.20;;;;;;5103017;27;20237;-54
2021/04/02 12:32:50;;;;;;;5.10;4.70;;;17.30;48.80;;;;;;5106172;27;20282;-53
2021/04/02 12:35:16;;;;;;;6.53;5.40;;;17.00;47.70;;;;;;5108276;27;20849;-53
2021/04/02 12:37:42;;;;;;;6.33;5.73;;;16.90;48.10;;;;;;5098605;28;20176;-54
2021/04/02 12:40:17;;;;;;;5.72;5.13;;;16.80;48.00;;;;;;5103271;27;20198;-53
2021/04/02 12:42:43;;;;;;;5.70;5.20;;;16.50;48.10;;;;;;5099386;27;20175;-53
2021/04/02 12:45:10;;;;;;;5.75;5.22;;;16.80;48.20;;;;;;5111362;27;20182;-53
2021/04/02 12:47:36;;;;;;;5.97;5.47;;;17.00;47.30;;;;;;5111510;27;20376;-54